sensor_id;sensor_type;location;lat;lon;timestamp;temperature;humidity
8400;DHT22;4237;47.030;15.396;2023-12-20T00:00:48;-2.30;99.90
8400;DHT22;4237;47.030;15.396;2023-12-20T00:03:17;-2.30;99.90
8400;DHT22;4237;47.030;15.396;2023-12-20T00:05:46;-2.30;99.90
8400;DHT22;4237;47.030;15.396;2023-12-20T00:08:15;-2.20;99.90
8400;DHT22;4237;47.030;15.396;2023-12-20T00:10:44;-2.20;99.90
8400;DHT22;4237;47.030;15.396;2023-12-20T00:13:13;-2.10;99.90
8400;DHT22;4237;47.030;15.396;2023-12-20T00:15:41;-2.20;99.90
8400;DHT22;4237;47.030;15.396;2023-12-20T00:18:10;-2.10;99.90
8400;DHT22;4237;47.030;15.396;2023-12-20T00:20:38;-2.00;99.90
8400;DHT22;4237;47.030;15.396;2023-12-20T00:23:07;-2.10;99.90
8400;DHT22;4237;47.030;15.396;2023-12-20T00:25:36;-2.20;99.90
8400;DHT22;4237;47.030;15.396;2023-12-20T00:28:04;-2.30;99.90
8400;DHT22;4237;47.030;15.396;2023-12-20T00:30:33;-2.30;99.90
8400;DHT22;4237;47.030;15.396;2023-12-20T00:33:02;-2.30;99.90
8400;DHT22;4237;47.030;15.396;2023-12-20T00:35:30;-2.30;99.90
8400;DHT22;4237;47.030;15.396;2023-12-20T00:37:59;-2.30;99.90
8400;DHT22;4237;47.030;15.396;2023-12-20T00:40:28;-2.40;99.90
8400;DHT22;4237;47.030;15.396;2023-12-20T00:42:56;-2.50;99.90
8400;DHT22;4237;47.030;15.396;2023-12-20T00:45:25;-2.40;99.90
8400;DHT22;4237;47.030;15.396;2023-12-20T00:47:53;-2.50;99.90
8400;DHT22;4237;47.030;15.396;2023-12-20T00:50:22;-2.50;99.90
8400;DHT22;4237;47.030;15.396;2023-12-20T00:52:50;-2.50;99.90
8400;DHT22;4237;47.030;15.396;2023-12-20T00:55:19;-2.50;99.90
8400;DHT22;4237;47.030;15.396;2023-12-20T00:57:48;-2.50;99.90
8400;DHT22;4237;47.030;15.396;2023-12-20T01:00:16;-2.50;99.90
8400;DHT22;4237;47.030;15.396;2023-12-20T01:02:45;-2.60;99.90
8400;DHT22;4237;47.030;15.396;2023-12-20T01:05:15;-2.60;99.90
8400;DHT22;4237;47.030;15.396;2023-12-20T01:07:45;-2.60;99.90
8400;DHT22;4237;47.030;15.396;2023-12-20T01:10:14;-2.60;99.90
8400;DHT22;4237;47.030;15.396;2023-12-20T01:12:43;-2.70;99.90
8400;DHT22;4237;47.030;15.396;2023-12-20T01:15:11;-2.60;99.90
8400;DHT22;4237;47.030;15.396;2023-12-20T01:17:40;-2.70;99.90
8400;DHT22;4237;47.030;15.396;2023-12-20T01:20:09;-2.70;99.90
8400;DHT22;4237;47.030;15.396;2023-12-20T01:22:37;-2.70;99.90
8400;DHT22;4237;47.030;15.396;2023-12-20T01:25:06;-2.70;99.90
8400;DHT22;4237;47.030;15.396;2023-12-20T01:27:35;-2.80;99.90
8400;DHT22;4237;47.030;15.396;2023-12-20T01:30:04;-2.80;99.90
8400;DHT22;4237;47.030;15.396;2023-12-20T01:32:33;-2.90;99.90
8400;DHT22;4237;47.030;15.396;2023-12-20T01:35:02;-2.80;99.90
8400;DHT22;4237;47.030;15.396;2023-12-20T01:37:30;-2.80;99.90
8400;DHT22;4237;47.030;15.396;2023-12-20T01:39:59;-2.80;99.90
8400;DHT22;4237;47.030;15.396;2023-12-20T01:42:27;-2.80;99.90
8400;DHT22;4237;47.030;15.396;2023-12-20T01:44:57;-2.80;99.90
8400;DHT22;4237;47.030;15.396;2023-12-20T01:47:25;-2.80;99.90
8400;DHT22;4237;47.030;15.396;2023-12-20T01:49:55;-2.70;99.90
8400;DHT22;4237;47.030;15.396;2023-12-20T01:52:26;-2.90;99.90
8400;DHT22;4237;47.030;15.396;2023-12-20T01:54:56;-2.90;99.90
8400;DHT22;4237;47.030;15.396;2023-12-20T01:57:27;-2.90;99.90
8400;DHT22;4237;47.030;15.396;2023-12-20T01:59:56;-2.90;99.90
8400;DHT22;4237;47.030;15.396;2023-12-20T02:02:28;-3.00;99.90
8400;DHT22;4237;47.030;15.396;2023-12-20T02:04:57;-3.00;99.90
8400;DHT22;4237;47.030;15.396;2023-12-20T02:07:26;-3.00;99.90
8400;DHT22;4237;47.030;15.396;2023-12-20T02:09:55;-3.10;99.90
8400;DHT22;4237;47.030;15.396;2023-12-20T02:12:25;-3.10;99.90
8400;DHT22;4237;47.030;15.396;2023-12-20T02:14:53;-3.10;99.90
8400;DHT22;4237;47.030;15.396;2023-12-20T02:17:22;-3.10;99.90
8400;DHT22;4237;47.030;15.396;2023-12-20T02:19:51;-3.20;99.90
8400;DHT22;4237;47.030;15.396;2023-12-20T02:22:20;-3.10;99.90
8400;DHT22;4237;47.030;15.396;2023-12-20T02:24:48;-3.20;99.90
8400;DHT22;4237;47.030;15.396;2023-12-20T02:27:18;-3.20;99.90
8400;DHT22;4237;47.030;15.396;2023-12-20T02:29:48;-3.10;99.90
8400;DHT22;4237;47.030;15.396;2023-12-20T02:32:21;-3.10;99.90
8400;DHT22;4237;47.030;15.396;2023-12-20T02:34:53;-3.00;99.90
8400;DHT22;4237;47.030;15.396;2023-12-20T02:37:21;-2.90;99.90
8400;DHT22;4237;47.030;15.396;2023-12-20T02:39:50;-3.00;99.90
8400;DHT22;4237;47.030;15.396;2023-12-20T02:42:19;-3.00;99.90
8400;DHT22;4237;47.030;15.396;2023-12-20T02:44:47;-3.10;99.90
8400;DHT22;4237;47.030;15.396;2023-12-20T02:47:16;-3.10;99.90
8400;DHT22;4237;47.030;15.396;2023-12-20T02:49:44;-3.10;99.90
8400;DHT22;4237;47.030;15.396;2023-12-20T02:52:13;-3.10;99.90
8400;DHT22;4237;47.030;15.396;2023-12-20T02:54:41;-3.10;99.90
8400;DHT22;4237;47.030;15.396;2023-12-20T02:57:10;-3.10;99.90
8400;DHT22;4237;47.030;15.396;2023-12-20T02:59:39;-3.10;99.90
8400;DHT22;4237;47.030;15.396;2023-12-20T03:02:07;-3.10;99.90
8400;DHT22;4237;47.030;15.396;2023-12-20T03:04:36;-3.20;99.90
8400;DHT22;4237;47.030;15.396;2023-12-20T03:07:04;-3.30;99.90
8400;DHT22;4237;47.030;15.396;2023-12-20T03:09:33;-3.30;99.90
8400;DHT22;4237;47.030;15.396;2023-12-20T03:12:01;-3.30;99.90
8400;DHT22;4237;47.030;15.396;2023-12-20T03:14:30;-3.20;99.90
8400;DHT22;4237;47.030;15.396;2023-12-20T03:16:59;-2.90;99.90
8400;DHT22;4237;47.030;15.396;2023-12-20T03:19:27;-3.20;99.90
8400;DHT22;4237;47.030;15.396;2023-12-20T03:21:56;-3.20;99.90
8400;DHT22;4237;47.030;15.396;2023-12-20T03:24:27;-3.20;99.90
8400;DHT22;4237;47.030;15.396;2023-12-20T03:26:55;-3.20;99.90
8400;DHT22;4237;47.030;15.396;2023-12-20T03:29:24;-3.30;99.90
8400;DHT22;4237;47.030;15.396;2023-12-20T03:31:52;-3.20;99.90
8400;DHT22;4237;47.030;15.396;2023-12-20T03:34:21;-3.10;99.90
8400;DHT22;4237;47.030;15.396;2023-12-20T03:36:49;-3.10;99.90
8400;DHT22;4237;47.030;15.396;2023-12-20T03:39:18;-3.10;99.90
8400;DHT22;4237;47.030;15.396;2023-12-20T03:41:47;-3.20;99.90
8400;DHT22;4237;47.030;15.396;2023-12-20T03:44:15;-3.30;99.90
8400;DHT22;4237;47.030;15.396;2023-12-20T03:46:44;-3.20;99.90
8400;DHT22;4237;47.030;15.396;2023-12-20T03:49:13;-3.20;99.90
8400;DHT22;4237;47.030;15.396;2023-12-20T03:51:42;-3.20;99.90
8400;DHT22;4237;47.030;15.396;2023-12-20T03:54:10;-3.10;99.90
8400;DHT22;4237;47.030;15.396;2023-12-20T03:56:39;-3.10;99.90
8400;DHT22;4237;47.030;15.396;2023-12-20T03:59:07;-3.10;99.90
8400;DHT22;4237;47.030;15.396;2023-12-20T04:01:36;-3.10;99.90
8400;DHT22;4237;47.030;15.396;2023-12-20T04:04:05;-3.20;99.90
8400;DHT22;4237;47.030;15.396;2023-12-20T04:06:33;-3.30;99.90
8400;DHT22;4237;47.030;15.396;2023-12-20T04:09:02;-3.30;99.90
8400;DHT22;4237;47.030;15.396;2023-12-20T04:11:30;-3.40;99.90
8400;DHT22;4237;47.030;15.396;2023-12-20T04:13:59;-3.40;99.90
8400;DHT22;4237;47.030;15.396;2023-12-20T04:16:28;-3.40;99.90
8400;DHT22;4237;47.030;15.396;2023-12-20T04:18:57;-3.30;99.90
8400;DHT22;4237;47.030;15.396;2023-12-20T04:21:25;-3.30;99.90
8400;DHT22;4237;47.030;15.396;2023-12-20T04:23:55;-3.30;99.90
8400;DHT22;4237;47.030;15.396;2023-12-20T04:26:23;-3.40;99.90
8400;DHT22;4237;47.030;15.396;2023-12-20T04:28:52;-3.40;99.90
8400;DHT22;4237;47.030;15.396;2023-12-20T04:31:20;-3.50;99.90
8400;DHT22;4237;47.030;15.396;2023-12-20T04:33:49;-3.50;99.90
8400;DHT22;4237;47.030;15.396;2023-12-20T04:36:17;-3.50;99.90
8400;DHT22;4237;47.030;15.396;2023-12-20T04:38:46;-3.40;99.90
8400;DHT22;4237;47.030;15.396;2023-12-20T04:41:15;-3.50;99.90
8400;DHT22;4237;47.030;15.396;2023-12-20T04:43:43;-3.50;99.90
8400;DHT22;4237;47.030;15.396;2023-12-20T04:46:12;-3.60;99.90
8400;DHT22;4237;47.030;15.396;2023-12-20T04:48:41;-3.60;99.90
8400;DHT22;4237;47.030;15.396;2023-12-20T04:51:09;-3.70;99.90
8400;DHT22;4237;47.030;15.396;2023-12-20T04:53:38;-3.70;99.90
8400;DHT22;4237;47.030;15.396;2023-12-20T04:56:06;-3.70;99.90
8400;DHT22;4237;47.030;15.396;2023-12-20T04:58:35;-3.70;99.90
8400;DHT22;4237;47.030;15.396;2023-12-20T05:01:05;-3.70;99.90
8400;DHT22;4237;47.030;15.396;2023-12-20T05:03:35;-3.70;99.90
8400;DHT22;4237;47.030;15.396;2023-12-20T05:06:04;-3.60;99.90
8400;DHT22;4237;47.030;15.396;2023-12-20T05:08:32;-3.60;99.90
8400;DHT22;4237;47.030;15.396;2023-12-20T05:11:01;-3.70;99.90
8400;DHT22;4237;47.030;15.396;2023-12-20T05:13:30;-3.70;99.90
8400;DHT22;4237;47.030;15.396;2023-12-20T05:15:59;-3.70;99.90
8400;DHT22;4237;47.030;15.396;2023-12-20T05:18:27;-3.60;99.90
8400;DHT22;4237;47.030;15.396;2023-12-20T05:20:56;-3.60;99.90
8400;DHT22;4237;47.030;15.396;2023-12-20T05:23:24;-3.60;99.90
8400;DHT22;4237;47.030;15.396;2023-12-20T05:25:59;-3.60;99.90
8400;DHT22;4237;47.030;15.396;2023-12-20T05:28:27;-3.60;99.90
8400;DHT22;4237;47.030;15.396;2023-12-20T05:30:56;-3.60;99.90
8400;DHT22;4237;47.030;15.396;2023-12-20T05:33:24;-3.60;99.90
8400;DHT22;4237;47.030;15.396;2023-12-20T05:35:53;-3.60;99.90
8400;DHT22;4237;47.030;15.396;2023-12-20T05:38:21;-3.50;99.90
8400;DHT22;4237;47.030;15.396;2023-12-20T05:40:50;-3.50;99.90
8400;DHT22;4237;47.030;15.396;2023-12-20T05:43:18;-3.50;99.90
8400;DHT22;4237;47.030;15.396;2023-12-20T05:45:47;-3.60;99.90
8400;DHT22;4237;47.030;15.396;2023-12-20T05:48:16;-3.50;99.90
8400;DHT22;4237;47.030;15.396;2023-12-20T05:50:44;-3.50;99.90
8400;DHT22;4237;47.030;15.396;2023-12-20T05:53:13;-3.50;99.90
8400;DHT22;4237;47.030;15.396;2023-12-20T05:55:41;-3.50;99.90
8400;DHT22;4237;47.030;15.396;2023-12-20T05:58:10;-3.50;99.90
8400;DHT22;4237;47.030;15.396;2023-12-20T06:00:38;-3.40;99.90
8400;DHT22;4237;47.030;15.396;2023-12-20T06:03:07;-3.20;99.90
8400;DHT22;4237;47.030;15.396;2023-12-20T06:05:36;-3.20;99.90
8400;DHT22;4237;47.030;15.396;2023-12-20T06:08:04;-2.90;99.90
8400;DHT22;4237;47.030;15.396;2023-12-20T06:10:33;-2.70;99.90
8400;DHT22;4237;47.030;15.396;2023-12-20T06:13:01;-2.50;99.90
8400;DHT22;4237;47.030;15.396;2023-12-20T06:15:32;-2.30;99.90
8400;DHT22;4237;47.030;15.396;2023-12-20T06:18:00;-2.30;99.90
8400;DHT22;4237;47.030;15.396;2023-12-20T06:20:29;-2.30;99.90
8400;DHT22;4237;47.030;15.396;2023-12-20T06:22:58;-2.20;99.90
8400;DHT22;4237;47.030;15.396;2023-12-20T06:25:26;-2.20;99.90
8400;DHT22;4237;47.030;15.396;2023-12-20T06:27:55;-2.10;99.90
8400;DHT22;4237;47.030;15.396;2023-12-20T06:30:23;-2.00;99.90
8400;DHT22;4237;47.030;15.396;2023-12-20T06:32:53;-1.90;99.90
8400;DHT22;4237;47.030;15.396;2023-12-20T06:35:24;-1.70;99.90
8400;DHT22;4237;47.030;15.396;2023-12-20T06:37:52;-1.50;99.90
8400;DHT22;4237;47.030;15.396;2023-12-20T06:40:21;-1.30;99.90
8400;DHT22;4237;47.030;15.396;2023-12-20T06:42:49;-1.10;99.90
8400;DHT22;4237;47.030;15.396;2023-12-20T06:45:37;-1.00;99.90
8400;DHT22;4237;47.030;15.396;2023-12-20T06:48:06;-0.90;99.90
8400;DHT22;4237;47.030;15.396;2023-12-20T06:50:35;-0.80;99.90
8400;DHT22;4237;47.030;15.396;2023-12-20T06:53:05;-0.70;99.90
8400;DHT22;4237;47.030;15.396;2023-12-20T06:55:36;-0.60;99.90
8400;DHT22;4237;47.030;15.396;2023-12-20T06:58:05;-0.50;99.90
8400;DHT22;4237;47.030;15.396;2023-12-20T07:00:34;-0.40;99.90
8400;DHT22;4237;47.030;15.396;2023-12-20T07:03:03;-0.40;99.90
8400;DHT22;4237;47.030;15.396;2023-12-20T07:05:31;-0.40;99.90
8400;DHT22;4237;47.030;15.396;2023-12-20T07:08:01;0.30;99.90
8400;DHT22;4237;47.030;15.396;2023-12-20T07:10:29;-0.20;99.90
8400;DHT22;4237;47.030;15.396;2023-12-20T07:12:58;-0.10;99.90
8400;DHT22;4237;47.030;15.396;2023-12-20T07:15:27;0.00;99.90
8400;DHT22;4237;47.030;15.396;2023-12-20T07:17:57;0.20;99.90
8400;DHT22;4237;47.030;15.396;2023-12-20T07:20:27;0.50;99.90
8400;DHT22;4237;47.030;15.396;2023-12-20T07:22:56;0.90;99.90
8400;DHT22;4237;47.030;15.396;2023-12-20T07:25:24;1.30;99.90
8400;DHT22;4237;47.030;15.396;2023-12-20T07:27:53;2.20;99.90
8400;DHT22;4237;47.030;15.396;2023-12-20T07:30:21;3.30;99.90
8400;DHT22;4237;47.030;15.396;2023-12-20T07:32:50;3.70;99.90
8400;DHT22;4237;47.030;15.396;2023-12-20T07:35:20;3.60;99.90
8400;DHT22;4237;47.030;15.396;2023-12-20T07:37:48;3.80;99.90
8400;DHT22;4237;47.030;15.396;2023-12-20T07:40:17;3.70;99.90
8400;DHT22;4237;47.030;15.396;2023-12-20T07:42:46;3.30;99.90
8400;DHT22;4237;47.030;15.396;2023-12-20T07:45:14;2.90;99.90
8400;DHT22;4237;47.030;15.396;2023-12-20T07:47:43;2.60;99.90
8400;DHT22;4237;47.030;15.396;2023-12-20T07:50:12;2.30;99.90
8400;DHT22;4237;47.030;15.396;2023-12-20T07:52:40;2.20;99.90
8400;DHT22;4237;47.030;15.396;2023-12-20T07:55:09;2.10;99.90
8400;DHT22;4237;47.030;15.396;2023-12-20T07:57:37;1.80;99.90
8400;DHT22;4237;47.030;15.396;2023-12-20T08:00:07;1.70;99.90
8400;DHT22;4237;47.030;15.396;2023-12-20T08:02:36;1.80;99.90
8400;DHT22;4237;47.030;15.396;2023-12-20T08:05:05;1.80;99.90
8400;DHT22;4237;47.030;15.396;2023-12-20T08:07:35;1.90;99.90
8400;DHT22;4237;47.030;15.396;2023-12-20T08:10:04;2.00;99.90
8400;DHT22;4237;47.030;15.396;2023-12-20T08:12:33;2.00;99.90
8400;DHT22;4237;47.030;15.396;2023-12-20T08:15:02;2.10;99.90
8400;DHT22;4237;47.030;15.396;2023-12-20T08:17:31;2.20;99.90
8400;DHT22;4237;47.030;15.396;2023-12-20T08:20:00;2.10;99.90
8400;DHT22;4237;47.030;15.396;2023-12-20T08:22:29;2.10;99.90
8400;DHT22;4237;47.030;15.396;2023-12-20T08:24:57;2.10;99.90
8400;DHT22;4237;47.030;15.396;2023-12-20T08:27:26;1.90;99.90
8400;DHT22;4237;47.030;15.396;2023-12-20T08:29:54;1.90;99.90
8400;DHT22;4237;47.030;15.396;2023-12-20T08:32:25;1.90;99.90
8400;DHT22;4237;47.030;15.396;2023-12-20T08:34:54;2.00;99.90
8400;DHT22;4237;47.030;15.396;2023-12-20T08:37:23;2.10;99.90
8400;DHT22;4237;47.030;15.396;2023-12-20T08:39:51;2.20;99.90
8400;DHT22;4237;47.030;15.396;2023-12-20T08:42:20;2.40;99.90
8400;DHT22;4237;47.030;15.396;2023-12-20T08:45:08;2.70;99.90
8400;DHT22;4237;47.030;15.396;2023-12-20T08:47:36;2.90;99.90
8400;DHT22;4237;47.030;15.396;2023-12-20T08:50:06;3.10;99.90
8400;DHT22;4237;47.030;15.396;2023-12-20T08:52:35;3.40;99.90
8400;DHT22;4237;47.030;15.396;2023-12-20T08:55:04;3.50;99.90
8400;DHT22;4237;47.030;15.396;2023-12-20T08:57:33;3.60;99.90
8400;DHT22;4237;47.030;15.396;2023-12-20T09:00:02;3.70;99.90
8400;DHT22;4237;47.030;15.396;2023-12-20T09:02:31;3.70;99.90
8400;DHT22;4237;47.030;15.396;2023-12-20T09:04:59;3.50;99.90
8400;DHT22;4237;47.030;15.396;2023-12-20T09:07:28;3.60;99.90
8400;DHT22;4237;47.030;15.396;2023-12-20T09:09:59;3.70;99.90
8400;DHT22;4237;47.030;15.396;2023-12-20T09:12:34;3.90;99.90
8400;DHT22;4237;47.030;15.396;2023-12-20T09:15:05;3.90;99.90
8400;DHT22;4237;47.030;15.396;2023-12-20T09:17:34;4.10;99.90
8400;DHT22;4237;47.030;15.396;2023-12-20T09:20:03;4.00;99.90
8400;DHT22;4237;47.030;15.396;2023-12-20T09:22:34;3.90;99.90
8400;DHT22;4237;47.030;15.396;2023-12-20T09:25:03;3.80;99.90
8400;DHT22;4237;47.030;15.396;2023-12-20T09:27:31;4.00;99.90
8400;DHT22;4237;47.030;15.396;2023-12-20T09:30:00;4.20;99.90
8400;DHT22;4237;47.030;15.396;2023-12-20T09:32:29;4.50;99.90
8400;DHT22;4237;47.030;15.396;2023-12-20T09:34:57;4.50;99.90
8400;DHT22;4237;47.030;15.396;2023-12-20T09:37:27;4.40;99.90
8400;DHT22;4237;47.030;15.396;2023-12-20T09:39:55;4.40;99.90
8400;DHT22;4237;47.030;15.396;2023-12-20T09:42:40;4.50;99.90
8400;DHT22;4237;47.030;15.396;2023-12-20T09:45:09;4.60;99.90
8400;DHT22;4237;47.030;15.396;2023-12-20T09:47:37;4.70;99.90
8400;DHT22;4237;47.030;15.396;2023-12-20T09:50:08;4.90;99.90
8400;DHT22;4237;47.030;15.396;2023-12-20T09:52:37;5.10;99.90
8400;DHT22;4237;47.030;15.396;2023-12-20T09:55:08;5.50;99.90
8400;DHT22;4237;47.030;15.396;2023-12-20T09:57:37;5.50;99.90
8400;DHT22;4237;47.030;15.396;2023-12-20T10:00:08;5.60;99.90
8400;DHT22;4237;47.030;15.396;2023-12-20T10:02:41;6.00;99.90
8400;DHT22;4237;47.030;15.396;2023-12-20T10:05:10;7.60;99.90
8400;DHT22;4237;47.030;15.396;2023-12-20T10:07:41;9.10;99.90
8400;DHT22;4237;47.030;15.396;2023-12-20T10:10:11;9.40;99.90
8400;DHT22;4237;47.030;15.396;2023-12-20T10:12:41;8.70;99.90
8400;DHT22;4237;47.030;15.396;2023-12-20T10:15:11;8.10;99.90
8400;DHT22;4237;47.030;15.396;2023-12-20T10:17:40;8.00;99.90
8400;DHT22;4237;47.030;15.396;2023-12-20T10:20:09;7.60;99.90
8400;DHT22;4237;47.030;15.396;2023-12-20T10:22:38;7.30;99.90
8400;DHT22;4237;47.030;15.396;2023-12-20T10:25:08;6.80;99.90
8400;DHT22;4237;47.030;15.396;2023-12-20T10:27:36;6.40;99.90
8400;DHT22;4237;47.030;15.396;2023-12-20T10:30:06;6.40;99.90
8400;DHT22;4237;47.030;15.396;2023-12-20T10:32:35;6.60;99.90
8400;DHT22;4237;47.030;15.396;2023-12-20T10:35:05;6.60;99.90
8400;DHT22;4237;47.030;15.396;2023-12-20T10:37:37;7.30;99.90
8400;DHT22;4237;47.030;15.396;2023-12-20T10:40:06;7.90;99.90
8400;DHT22;4237;47.030;15.396;2023-12-20T10:42:36;8.60;99.90
8400;DHT22;4237;47.030;15.396;2023-12-20T10:45:06;9.50;99.90
8400;DHT22;4237;47.030;15.396;2023-12-20T10:47:36;10.70;99.90
8400;DHT22;4237;47.030;15.396;2023-12-20T10:50:07;11.10;99.90
8400;DHT22;4237;47.030;15.396;2023-12-20T10:52:38;10.40;99.90
8400;DHT22;4237;47.030;15.396;2023-12-20T10:55:08;9.50;99.90
8400;DHT22;4237;47.030;15.396;2023-12-20T10:57:37;8.80;99.90
8400;DHT22;4237;47.030;15.396;2023-12-20T11:00:08;8.20;99.90
8400;DHT22;4237;47.030;15.396;2023-12-20T11:02:39;7.60;99.90
8400;DHT22;4237;47.030;15.396;2023-12-20T11:07:50;7.10;99.90
8400;DHT22;4237;47.030;15.396;2023-12-20T11:10:29;6.70;99.90
8400;DHT22;4237;47.030;15.396;2023-12-20T11:13:12;6.50;99.90
8400;DHT22;4237;47.030;15.396;2023-12-20T11:15:41;6.20;99.90
8400;DHT22;4237;47.030;15.396;2023-12-20T11:18:10;5.80;99.90
8400;DHT22;4237;47.030;15.396;2023-12-20T11:20:40;5.60;99.90
8400;DHT22;4237;47.030;15.396;2023-12-20T11:23:09;5.70;99.90
8400;DHT22;4237;47.030;15.396;2023-12-20T11:25:49;5.90;99.90
8400;DHT22;4237;47.030;15.396;2023-12-20T11:28:23;6.10;99.90
8400;DHT22;4237;47.030;15.396;2023-12-20T11:30:54;6.20;99.90
8400;DHT22;4237;47.030;15.396;2023-12-20T11:33:24;6.20;99.90
8400;DHT22;4237;47.030;15.396;2023-12-20T11:35:57;6.30;99.90
8400;DHT22;4237;47.030;15.396;2023-12-20T11:38:27;6.10;99.90
8400;DHT22;4237;47.030;15.396;2023-12-20T11:40:59;6.20;99.90
8400;DHT22;4237;47.030;15.396;2023-12-20T11:43:38;6.30;99.90
8400;DHT22;4237;47.030;15.396;2023-12-20T11:46:08;6.50;99.90
8400;DHT22;4237;47.030;15.396;2023-12-20T11:48:39;6.70;99.90
8400;DHT22;4237;47.030;15.396;2023-12-20T11:51:11;7.30;99.90
8400;DHT22;4237;47.030;15.396;2023-12-20T11:53:41;7.70;99.90
8400;DHT22;4237;47.030;15.396;2023-12-20T11:56:12;7.70;99.90
8400;DHT22;4237;47.030;15.396;2023-12-20T11:58:41;7.70;99.90
8400;DHT22;4237;47.030;15.396;2023-12-20T12:01:10;8.00;99.90
8400;DHT22;4237;47.030;15.396;2023-12-20T12:03:39;8.20;99.90
8400;DHT22;4237;47.030;15.396;2023-12-20T12:06:09;8.00;99.90
8400;DHT22;4237;47.030;15.396;2023-12-20T12:08:38;8.00;99.90
8400;DHT22;4237;47.030;15.396;2023-12-20T12:11:06;8.30;99.90
8400;DHT22;4237;47.030;15.396;2023-12-20T12:13:35;8.50;99.90
8400;DHT22;4237;47.030;15.396;2023-12-20T12:16:05;8.50;99.90
8400;DHT22;4237;47.030;15.396;2023-12-20T12:18:33;8.60;99.90
8400;DHT22;4237;47.030;15.396;2023-12-20T12:21:03;8.50;99.90
8400;DHT22;4237;47.030;15.396;2023-12-20T12:23:33;8.50;99.90
8400;DHT22;4237;47.030;15.396;2023-12-20T12:26:06;8.30;99.90
8400;DHT22;4237;47.030;15.396;2023-12-20T12:28:35;8.20;99.90
8400;DHT22;4237;47.030;15.396;2023-12-20T12:31:04;8.40;99.90
8400;DHT22;4237;47.030;15.396;2023-12-20T12:33:33;8.30;99.90
8400;DHT22;4237;47.030;15.396;2023-12-20T12:36:02;8.20;99.90
8400;DHT22;4237;47.030;15.396;2023-12-20T12:38:33;8.00;99.90
8400;DHT22;4237;47.030;15.396;2023-12-20T12:41:02;7.90;99.90
8400;DHT22;4237;47.030;15.396;2023-12-20T12:43:31;7.90;99.90
8400;DHT22;4237;47.030;15.396;2023-12-20T12:45:59;7.70;99.90
8400;DHT22;4237;47.030;15.396;2023-12-20T12:48:28;7.60;99.90
8400;DHT22;4237;47.030;15.396;2023-12-20T12:50:57;7.60;99.90
8400;DHT22;4237;47.030;15.396;2023-12-20T12:53:26;7.40;99.90
8400;DHT22;4237;47.030;15.396;2023-12-20T12:55:55;7.40;99.90
8400;DHT22;4237;47.030;15.396;2023-12-20T12:58:24;7.40;99.90
8400;DHT22;4237;47.030;15.396;2023-12-20T13:00:53;7.50;99.90
8400;DHT22;4237;47.030;15.396;2023-12-20T13:03:23;7.50;99.90
8400;DHT22;4237;47.030;15.396;2023-12-20T13:05:52;7.60;99.90
8400;DHT22;4237;47.030;15.396;2023-12-20T13:08:20;7.60;99.90
8400;DHT22;4237;47.030;15.396;2023-12-20T13:10:49;7.60;99.90
8400;DHT22;4237;47.030;15.396;2023-12-20T13:13:17;7.70;99.90
8400;DHT22;4237;47.030;15.396;2023-12-20T13:15:46;8.10;99.90
8400;DHT22;4237;47.030;15.396;2023-12-20T13:18:17;8.50;99.90
8400;DHT22;4237;47.030;15.396;2023-12-20T13:20:47;9.00;99.90
8400;DHT22;4237;47.030;15.396;2023-12-20T13:23:15;9.40;99.90
8400;DHT22;4237;47.030;15.396;2023-12-20T13:25:45;10.00;99.90
8400;DHT22;4237;47.030;15.396;2023-12-20T13:28:14;10.10;99.90
8400;DHT22;4237;47.030;15.396;2023-12-20T13:30:43;10.00;99.90
8400;DHT22;4237;47.030;15.396;2023-12-20T13:33:11;10.00;99.90
8400;DHT22;4237;47.030;15.396;2023-12-20T13:35:40;9.90;99.90
8400;DHT22;4237;47.030;15.396;2023-12-20T13:38:09;9.50;99.90
8400;DHT22;4237;47.030;15.396;2023-12-20T13:40:37;9.20;99.90
8400;DHT22;4237;47.030;15.396;2023-12-20T13:43:06;8.80;99.90
8400;DHT22;4237;47.030;15.396;2023-12-20T13:45:34;8.60;99.90
8400;DHT22;4237;47.030;15.396;2023-12-20T13:48:04;8.50;99.90
8400;DHT22;4237;47.030;15.396;2023-12-20T13:50:33;8.30;99.90
8400;DHT22;4237;47.030;15.396;2023-12-20T13:53:01;8.10;99.90
8400;DHT22;4237;47.030;15.396;2023-12-20T13:55:31;7.60;99.90
8400;DHT22;4237;47.030;15.396;2023-12-20T13:58:00;7.40;99.90
8400;DHT22;4237;47.030;15.396;2023-12-20T14:00:28;7.30;99.90
8400;DHT22;4237;47.030;15.396;2023-12-20T14:02:57;7.20;99.90
8400;DHT22;4237;47.030;15.396;2023-12-20T14:05:26;7.10;99.90
8400;DHT22;4237;47.030;15.396;2023-12-20T14:07:56;7.00;99.90
8400;DHT22;4237;47.030;15.396;2023-12-20T14:10:28;6.90;99.90
8400;DHT22;4237;47.030;15.396;2023-12-20T14:12:56;6.70;99.90
8400;DHT22;4237;47.030;15.396;2023-12-20T14:15:25;6.60;99.90
8400;DHT22;4237;47.030;15.396;2023-12-20T14:17:53;6.70;99.90
8400;DHT22;4237;47.030;15.396;2023-12-20T14:20:22;6.70;99.90
8400;DHT22;4237;47.030;15.396;2023-12-20T14:22:51;6.70;99.90
8400;DHT22;4237;47.030;15.396;2023-12-20T14:25:19;6.50;99.90
8400;DHT22;4237;47.030;15.396;2023-12-20T14:27:50;6.20;99.90
8400;DHT22;4237;47.030;15.396;2023-12-20T14:30:19;6.00;99.90
8400;DHT22;4237;47.030;15.396;2023-12-20T14:32:48;5.90;99.90
8400;DHT22;4237;47.030;15.396;2023-12-20T14:35:16;5.90;99.90
8400;DHT22;4237;47.030;15.396;2023-12-20T14:37:46;5.80;99.90
8400;DHT22;4237;47.030;15.396;2023-12-20T14:40:15;5.70;99.90
8400;DHT22;4237;47.030;15.396;2023-12-20T14:42:44;5.60;99.90
8400;DHT22;4237;47.030;15.396;2023-12-20T14:45:14;5.40;99.90
8400;DHT22;4237;47.030;15.396;2023-12-20T14:47:43;5.30;99.90
8400;DHT22;4237;47.030;15.396;2023-12-20T14:50:13;5.30;99.90
8400;DHT22;4237;47.030;15.396;2023-12-20T14:52:43;5.10;99.90
8400;DHT22;4237;47.030;15.396;2023-12-20T14:55:13;4.90;99.90
8400;DHT22;4237;47.030;15.396;2023-12-20T14:57:41;4.60;99.90
8400;DHT22;4237;47.030;15.396;2023-12-20T15:00:10;4.40;99.90
8400;DHT22;4237;47.030;15.396;2023-12-20T15:02:40;4.20;99.90
8400;DHT22;4237;47.030;15.396;2023-12-20T15:05:09;4.10;99.90
8400;DHT22;4237;47.030;15.396;2023-12-20T15:07:37;4.10;99.90
8400;DHT22;4237;47.030;15.396;2023-12-20T15:10:07;4.10;99.90
8400;DHT22;4237;47.030;15.396;2023-12-20T15:12:56;3.90;99.90
8400;DHT22;4237;47.030;15.396;2023-12-20T15:15:25;3.80;99.90
8400;DHT22;4237;47.030;15.396;2023-12-20T15:17:55;3.60;99.90
8400;DHT22;4237;47.030;15.396;2023-12-20T15:20:23;3.50;99.90
8400;DHT22;4237;47.030;15.396;2023-12-20T15:22:52;3.40;99.90
8400;DHT22;4237;47.030;15.396;2023-12-20T15:25:22;3.40;99.90
8400;DHT22;4237;47.030;15.396;2023-12-20T15:27:52;3.50;99.90
8400;DHT22;4237;47.030;15.396;2023-12-20T15:30:21;3.30;99.90
8400;DHT22;4237;47.030;15.396;2023-12-20T15:32:51;3.10;99.90
8400;DHT22;4237;47.030;15.396;2023-12-20T15:35:20;2.90;99.90
8400;DHT22;4237;47.030;15.396;2023-12-20T15:37:48;2.80;99.90
8400;DHT22;4237;47.030;15.396;2023-12-20T15:40:18;2.70;99.90
8400;DHT22;4237;47.030;15.396;2023-12-20T15:42:46;2.50;99.90
8400;DHT22;4237;47.030;15.396;2023-12-20T15:45:15;2.50;99.90
8400;DHT22;4237;47.030;15.396;2023-12-20T15:47:44;2.40;99.90
8400;DHT22;4237;47.030;15.396;2023-12-20T15:50:12;2.30;99.90
8400;DHT22;4237;47.030;15.396;2023-12-20T15:52:42;2.20;99.90
8400;DHT22;4237;47.030;15.396;2023-12-20T15:55:11;2.10;99.90
8400;DHT22;4237;47.030;15.396;2023-12-20T15:57:39;2.00;99.90
8400;DHT22;4237;47.030;15.396;2023-12-20T16:00:09;1.90;99.90
8400;DHT22;4237;47.030;15.396;2023-12-20T16:02:38;1.80;99.90
8400;DHT22;4237;47.030;15.396;2023-12-20T16:05:07;1.70;99.90
8400;DHT22;4237;47.030;15.396;2023-12-20T16:07:35;1.60;99.90
8400;DHT22;4237;47.030;15.396;2023-12-20T16:10:04;1.50;99.90